Архив погоды в Агзу

Метеограмма Агзу
Пятница, 21 Сентября
Время местн. Темп Ветер Видим Явления Облачность нижн/средн/верх Атм. давл. Влжн Точка росы ВНГО R Сост. почвы Tg s
Напр Скр Прв ур.ст ур.м изм
10:00 - +8.2° З 1 - - - - 750 765 +0.2 72% +3.4° - - - - -
07:00 -1.8° штиль 0 - 50 км - переменная облачность 750 766 +1.1 100% -1.8° 200 м 0 Влажная (без луж) - -
04:00 - -0.9° штиль 0 - - - - 749 765 +1 99% -1° - - - - -
01:00 +1.4° штиль 0 - 20 км - ясно 748 764 +1.1 98% +1.1° более 2.5 км - - - -
Четверг, 20 Сентября
Время местн. Темп Ветер Видим Явления Облачность нижн/средн/верх Атм. давл. Влжн Точка росы ВНГО R Сост. почвы Tg s
Напр Скр Прв ур.ст ур.м изм
22:00 - +5.3° штиль 0 - - - - 747 762 +2 93% +4.2° - - - - -
19:00 +10.9° штиль 0 - 50 км - переменная облачность 745 760 +1.6 72% +6.1° 1.5 км 0 - - -
16:00 - +17.9° З 2 - - - - 743 758 -0.1 32% +0.8° - - - - -
13:00 +18.9° З,С-З 2 - 50 км - переменная облачность 743 758 -1.6 32% +1.9° 1.5 км - - - -
10:00 - +6.6° штиль 0 - - - - 745 760 +0.4 88% +4.8° - - - - -
07:00 +1° штиль 0 - 20 км - облачно 745 760 +0.4 100% +1° 200 м 0 Влажная (без луж) - -
04:00 - штиль 0 - - - - 744 760 +0.8 99% -0.1° - - - - -
01:00 +3.3° штиль 0 - 20 км - ясно 744 759 +0.4 98% +3° более 2.5 км - - - -
Среда, 19 Сентября
Время местн. Темп Ветер Видим Явления Облачность нижн/средн/верх Атм. давл. Влжн Точка росы ВНГО R Сост. почвы Tg s
Напр Скр Прв ур.ст ур.м изм
22:00 - +6.5° З,Ю-З 1 - - - - 743 759 +1.1 89% +4.9° - - - - -
19:00 +11.3° штиль 0 - 50 км - переменная облачность 742 757 +0.8 68% +5.6° 1.5 км 0 - - -
16:00 - +15.3° З 2 - - - - 741 756 +0.4 41% +2.3° - - - - -
13:00 +18.6° З 2 - 50 км - переменная облачность 741 756 -1.1 34% +2.6° 1.5 км - - - -
10:00 - +10.8° штиль 0 - - - - 742 757 -0.3 78% +7.2° - - - - -
07:00 +3.7° штиль 0 - 20 км - облачно 743 758 +1 99% +3.6° 200 м 1 Влажная (без луж) - -
04:00 - +4.3° штиль 0 - - - - 742 757 +0.6 99% +4.1° - - - - -
01:00 +7.7° штиль 0 - 20 км небо без изменений {ливневые осадки} переменная облачность 741 756 +0.3 97% +7.2° 1 км - - - -
Вторник, 18 Сентября
Время местн. Темп Ветер Видим Явления Облачность нижн/средн/верх Атм. давл. Влжн Точка росы ВНГО R Сост. почвы Tg s
Напр Скр Прв ур.ст ур.м изм
22:00 - +9.6° Ю,Ю-В 1 - - - - 741 756 +0.5 82% +6.6° - - - - -
19:00 +11.5° штиль 0 - более 50 км - переменная облачность 740 755 +0.7 78% +7.8° 1 км 0.1 - - -
16:00 - +16.6° З 2 - - - - 740 754 -0.8 44% +4.2° - - - - -
13:00 +16.2° С-З 1 - 50 км - облачно с прояснениями 740 755 -0.5 47% +4.9° 1 км - - - -
10:00 - +16.5° З,С-З 2 - - - - 741 756 -0.2 49% +5.8° - - - - -
07:00 +8° штиль 0 - 50 км - преимущественно облачно 741 756 +0.5 96% +7.4° 1 км 0 Влажная (без луж) - -